sensor_id;sensor_type;location;lat;lon;timestamp;pressure;altitude;pressure_sealevel;temperature;humidity
5883;BME280;2967;51.488;6.618;2022-07-05T00:00:48;101806.63;;;19.66;93.24
5883;BME280;2967;51.488;6.618;2022-07-05T00:05:51;101717.13;;;19.96;89.06
5883;BME280;2967;51.488;6.618;2022-07-05T00:10:53;101797.47;;;19.17;94.19
5883;BME280;2967;51.488;6.618;2022-07-05T00:15:57;101599.22;;;19.04;90.09
5883;BME280;2967;51.488;6.618;2022-07-05T00:21:00;101805.25;;;20.02;91.03
5883;BME280;2967;51.488;6.618;2022-07-05T00:26:03;101807.75;;;20.14;90.30
5883;BME280;2967;51.488;6.618;2022-07-05T00:31:07;101809.63;;;20.33;90.16
5883;BME280;2967;51.488;6.618;2022-07-05T00:36:10;101721.78;;;19.54;89.91
5883;BME280;2967;51.488;6.618;2022-07-05T00:41:13;101797.19;;;20.32;89.48
5883;BME280;2967;51.488;6.618;2022-07-05T00:46:17;101802.94;;;20.18;91.18
5883;BME280;2967;51.488;6.618;2022-07-05T00:51:21;101794.47;;;19.42;92.70
5883;BME280;2967;51.488;6.618;2022-07-05T00:56:25;101708.00;;;19.38;91.43
5883;BME280;2967;51.488;6.618;2022-07-05T01:01:29;101806.06;;;19.93;91.46
5883;BME280;2967;51.488;6.618;2022-07-05T01:06:32;101810.31;;;19.24;94.33
5883;BME280;2967;51.488;6.618;2022-07-05T01:11:36;101796.50;;;20.00;91.17
5883;BME280;2967;51.488;6.618;2022-07-05T01:16:40;101795.63;;;19.99;90.95
5883;BME280;2967;51.488;6.618;2022-07-05T01:21:44;101813.16;;;19.73;94.06
5883;BME280;2967;51.488;6.618;2022-07-05T01:26:50;101800.28;;;19.97;91.92
5883;BME280;2967;51.488;6.618;2022-07-05T01:31:53;101804.81;;;20.27;91.48
5883;BME280;2967;51.488;6.618;2022-07-05T01:36:56;101797.31;;;19.09;97.42
5883;BME280;2967;51.488;6.618;2022-07-05T01:42:01;101725.69;;;19.41;93.33
5883;BME280;2967;51.488;6.618;2022-07-05T01:47:05;101810.16;;;19.97;92.04
5883;BME280;2967;51.488;6.618;2022-07-05T01:52:10;101797.16;;;19.10;95.89
5883;BME280;2967;51.488;6.618;2022-07-05T01:57:16;101800.13;;;19.99;92.57
5883;BME280;2967;51.488;6.618;2022-07-05T02:02:19;101796.53;;;18.86;99.35
5883;BME280;2967;51.488;6.618;2022-07-05T02:07:21;101795.34;;;19.72;94.54
5883;BME280;2967;51.488;6.618;2022-07-05T02:12:26;101797.88;;;19.94;92.92
5883;BME280;2967;51.488;6.618;2022-07-05T02:17:29;101797.06;;;19.53;95.30
5883;BME280;2967;51.488;6.618;2022-07-05T02:22:32;101791.72;;;19.53;94.76
5883;BME280;2967;51.488;6.618;2022-07-05T02:27:36;101716.97;;;18.56;97.57
5883;BME280;2967;51.488;6.618;2022-07-05T02:32:40;101789.75;;;19.03;97.21
5883;BME280;2967;51.488;6.618;2022-07-05T02:37:43;101798.78;;;19.54;95.33
5883;BME280;2967;51.488;6.618;2022-07-05T02:42:50;101730.41;;;19.17;94.67
5883;BME280;2967;51.488;6.618;2022-07-05T02:47:54;101799.06;;;19.81;93.81
5883;BME280;2967;51.488;6.618;2022-07-05T02:53:00;101768.47;;;18.90;98.92
5883;BME280;2967;51.488;6.618;2022-07-05T02:58:04;101771.88;;;17.29;100.00
5883;BME280;2967;51.488;6.618;2022-07-05T03:03:07;101771.19;;;18.26;100.00
5883;BME280;2967;51.488;6.618;2022-07-05T03:08:10;101809.84;;;18.77;100.00
5883;BME280;2967;51.488;6.618;2022-07-05T03:13:16;101811.47;;;19.31;97.95
5883;BME280;2967;51.488;6.618;2022-07-05T03:18:20;101825.41;;;17.06;100.00
5883;BME280;2967;51.488;6.618;2022-07-05T03:23:26;101819.41;;;18.48;100.00
5883;BME280;2967;51.488;6.618;2022-07-05T03:28:33;101515.03;;;16.19;100.00
5883;BME280;2967;51.488;6.618;2022-07-05T03:33:36;101826.22;;;17.75;100.00
5883;BME280;2967;51.488;6.618;2022-07-05T03:38:42;101828.59;;;18.77;100.00
5883;BME280;2967;51.488;6.618;2022-07-05T03:43:47;101824.19;;;18.87;100.00
5883;BME280;2967;51.488;6.618;2022-07-05T03:48:52;101818.09;;;19.16;99.87
5883;BME280;2967;51.488;6.618;2022-07-05T03:53:55;101836.16;;;19.46;98.57
5883;BME280;2967;51.488;6.618;2022-07-05T03:59:00;101840.50;;;18.95;100.00
5883;BME280;2967;51.488;6.618;2022-07-05T04:04:05;101808.03;;;18.98;100.00
5883;BME280;2967;51.488;6.618;2022-07-05T04:09:08;101824.63;;;19.34;99.72
5883;BME280;2967;51.488;6.618;2022-07-05T04:14:13;101764.56;;;18.94;99.43
5883;BME280;2967;51.488;6.618;2022-07-05T04:19:17;101747.69;;;18.83;99.16
5883;BME280;2967;51.488;6.618;2022-07-05T04:24:20;101775.88;;;18.98;99.31
5883;BME280;2967;51.488;6.618;2022-07-05T04:29:25;101847.28;;;19.41;99.80
5883;BME280;2967;51.488;6.618;2022-07-05T04:34:28;101590.84;;;17.52;100.00
5883;BME280;2967;51.488;6.618;2022-07-05T04:39:31;101818.44;;;17.83;100.00
5883;BME280;2967;51.488;6.618;2022-07-05T04:44:41;101845.88;;;17.52;100.00
5883;BME280;2967;51.488;6.618;2022-07-05T04:49:44;101853.53;;;18.99;100.00
5883;BME280;2967;51.488;6.618;2022-07-05T04:54:47;101865.06;;;19.22;100.00
5883;BME280;2967;51.488;6.618;2022-07-05T04:59:51;101855.00;;;18.50;100.00
5883;BME280;2967;51.488;6.618;2022-07-05T05:04:54;101868.06;;;19.28;100.00
5883;BME280;2967;51.488;6.618;2022-07-05T05:09:57;101869.84;;;18.43;100.00
5883;BME280;2967;51.488;6.618;2022-07-05T05:15:01;101870.84;;;18.31;100.00
5883;BME280;2967;51.488;6.618;2022-07-05T05:20:06;101867.91;;;18.45;100.00
5883;BME280;2967;51.488;6.618;2022-07-05T05:25:11;101868.88;;;18.33;100.00
5883;BME280;2967;51.488;6.618;2022-07-05T05:30:17;101822.53;;;18.75;100.00
5883;BME280;2967;51.488;6.618;2022-07-05T05:35:20;101855.81;;;18.51;100.00
5883;BME280;2967;51.488;6.618;2022-07-05T05:40:25;101864.75;;;18.40;100.00
5883;BME280;2967;51.488;6.618;2022-07-05T05:45:29;101885.06;;;18.54;100.00
5883;BME280;2967;51.488;6.618;2022-07-05T05:50:35;101881.97;;;18.91;100.00
5883;BME280;2967;51.488;6.618;2022-07-05T05:55:38;101765.63;;;18.29;100.00
5883;BME280;2967;51.488;6.618;2022-07-05T06:00:44;101887.16;;;19.03;100.00
5883;BME280;2967;51.488;6.618;2022-07-05T06:05:49;101890.66;;;19.15;100.00
5883;BME280;2967;51.488;6.618;2022-07-05T06:11:12;101687.97;;;18.07;98.84
5883;BME280;2967;51.488;6.618;2022-07-05T06:16:58;101908.94;;;19.52;97.24
5883;BME280;2967;51.488;6.618;2022-07-05T06:22:01;101897.31;;;19.63;94.17
5883;BME280;2967;51.488;6.618;2022-07-05T06:27:04;101906.50;;;19.81;94.88
5883;BME280;2967;51.488;6.618;2022-07-05T06:32:08;101908.13;;;19.93;95.38
5883;BME280;2967;51.488;6.618;2022-07-05T06:37:11;101873.03;;;19.64;93.00
5883;BME280;2967;51.488;6.618;2022-07-05T06:42:14;101915.03;;;20.06;94.66
5883;BME280;2967;51.488;6.618;2022-07-05T06:47:18;101922.69;;;20.11;93.82
5883;BME280;2967;51.488;6.618;2022-07-05T06:52:22;101888.41;;;20.03;88.55
5883;BME280;2967;51.488;6.618;2022-07-05T06:57:25;101900.47;;;20.09;88.86
5883;BME280;2967;51.488;6.618;2022-07-05T07:02:34;101881.53;;;19.90;90.49
5883;BME280;2967;51.488;6.618;2022-07-05T07:07:39;101893.03;;;20.01;90.67
5883;BME280;2967;51.488;6.618;2022-07-05T07:13:00;101915.97;;;20.26;88.73
5883;BME280;2967;51.488;6.618;2022-07-05T07:18:07;101929.22;;;20.48;86.51
5883;BME280;2967;51.488;6.618;2022-07-05T07:23:10;101909.28;;;20.41;88.05
5883;BME280;2967;51.488;6.618;2022-07-05T07:28:12;101925.72;;;20.57;87.22
5883;BME280;2967;51.488;6.618;2022-07-05T07:33:16;101937.03;;;20.51;80.61
5883;BME280;2967;51.488;6.618;2022-07-05T07:38:42;101939.88;;;20.59;79.60
5883;BME280;2967;51.488;6.618;2022-07-05T07:43:46;101902.03;;;20.41;80.78
5883;BME280;2967;51.488;6.618;2022-07-05T07:48:51;101913.47;;;20.64;81.56
5883;BME280;2967;51.488;6.618;2022-07-05T07:53:53;101948.13;;;20.97;82.12
5883;BME280;2967;51.488;6.618;2022-07-05T07:59:05;101951.28;;;21.11;78.49
5883;BME280;2967;51.488;6.618;2022-07-05T08:04:12;101958.66;;;21.09;78.77
5883;BME280;2967;51.488;6.618;2022-07-05T08:09:15;101936.69;;;20.74;78.35
5883;BME280;2967;51.488;6.618;2022-07-05T08:14:19;101945.75;;;20.73;76.00
5883;BME280;2967;51.488;6.618;2022-07-05T08:19:23;101964.00;;;21.00;75.65
5883;BME280;2967;51.488;6.618;2022-07-05T08:24:44;101968.53;;;20.90;74.56
5883;BME280;2967;51.488;6.618;2022-07-05T08:29:50;101969.53;;;20.78;76.38
5883;BME280;2967;51.488;6.618;2022-07-05T08:34:54;101962.03;;;21.02;77.65
5883;BME280;2967;51.488;6.618;2022-07-05T08:39:57;101950.41;;;21.01;77.21
5883;BME280;2967;51.488;6.618;2022-07-05T08:45:00;101956.66;;;21.11;77.31
5883;BME280;2967;51.488;6.618;2022-07-05T08:50:07;101916.50;;;20.80;75.95
5883;BME280;2967;51.488;6.618;2022-07-05T08:55:11;101967.28;;;21.13;76.72
5883;BME280;2967;51.488;6.618;2022-07-05T09:00:17;101946.47;;;21.15;76.72
5883;BME280;2967;51.488;6.618;2022-07-05T09:05:25;101969.69;;;21.16;74.94
5883;BME280;2967;51.488;6.618;2022-07-05T09:10:37;101954.13;;;21.19;75.28
5883;BME280;2967;51.488;6.618;2022-07-05T09:15:40;101961.22;;;21.20;74.94
5883;BME280;2967;51.488;6.618;2022-07-05T09:20:44;101961.09;;;21.22;77.84
5883;BME280;2967;51.488;6.618;2022-07-05T09:26:01;101955.00;;;21.39;77.93
5883;BME280;2967;51.488;6.618;2022-07-05T09:31:25;101934.03;;;21.33;76.50
5883;BME280;2967;51.488;6.618;2022-07-05T09:36:53;101934.63;;;21.55;77.37
5883;BME280;2967;51.488;6.618;2022-07-05T09:42:09;101962.84;;;21.70;74.37
5883;BME280;2967;51.488;6.618;2022-07-05T09:47:13;101957.59;;;21.78;72.46
5883;BME280;2967;51.488;6.618;2022-07-05T09:52:28;101953.06;;;21.88;73.59
5883;BME280;2967;51.488;6.618;2022-07-05T09:57:33;101925.41;;;21.76;74.01
5883;BME280;2967;51.488;6.618;2022-07-05T10:02:42;101953.47;;;21.93;73.23
5883;BME280;2967;51.488;6.618;2022-07-05T10:07:50;101963.97;;;21.86;73.05
5883;BME280;2967;51.488;6.618;2022-07-05T10:12:54;101937.75;;;21.79;75.58
5883;BME280;2967;51.488;6.618;2022-07-05T10:17:59;101949.06;;;21.92;74.65
5883;BME280;2967;51.488;6.618;2022-07-05T10:23:05;101944.56;;;21.92;72.36
5883;BME280;2967;51.488;6.618;2022-07-05T10:28:09;101960.97;;;21.89;71.73
5883;BME280;2967;51.488;6.618;2022-07-05T10:33:12;101958.03;;;21.73;74.72
5883;BME280;2967;51.488;6.618;2022-07-05T10:38:17;101964.97;;;21.85;72.10
5883;BME280;2967;51.488;6.618;2022-07-05T10:43:22;101944.81;;;21.89;68.61
5883;BME280;2967;51.488;6.618;2022-07-05T10:48:27;101916.06;;;21.80;67.73
5883;BME280;2967;51.488;6.618;2022-07-05T10:53:59;101950.34;;;21.97;67.33
5883;BME280;2967;51.488;6.618;2022-07-05T10:59:07;101958.41;;;21.97;67.02
5883;BME280;2967;51.488;6.618;2022-07-05T11:04:28;101938.72;;;21.97;67.34
5883;BME280;2967;51.488;6.618;2022-07-05T11:09:58;101953.84;;;22.26;67.11
5883;BME280;2967;51.488;6.618;2022-07-05T11:15:06;101943.16;;;22.34;68.89
5883;BME280;2967;51.488;6.618;2022-07-05T11:20:15;101943.03;;;22.26;70.53
5883;BME280;2967;51.488;6.618;2022-07-05T11:25:23;101944.47;;;22.21;67.94
5883;BME280;2967;51.488;6.618;2022-07-05T11:30:30;101939.09;;;22.21;70.77
5883;BME280;2967;51.488;6.618;2022-07-05T11:35:35;101939.66;;;22.24;68.54
5883;BME280;2967;51.488;6.618;2022-07-05T11:40:41;101937.09;;;22.23;71.26
5883;BME280;2967;51.488;6.618;2022-07-05T11:45:44;101908.19;;;22.15;69.63
5883;BME280;2967;51.488;6.618;2022-07-05T11:50:47;101915.06;;;22.46;68.51
5883;BME280;2967;51.488;6.618;2022-07-05T11:55:55;101827.63;;;22.12;68.05
5883;BME280;2967;51.488;6.618;2022-07-05T12:00:59;101857.22;;;22.58;70.00
5883;BME280;2967;51.488;6.618;2022-07-05T12:06:12;101911.50;;;23.00;67.66
5883;BME280;2967;51.488;6.618;2022-07-05T12:18:28;101916.19;;;23.25;66.07
5883;BME280;2967;51.488;6.618;2022-07-05T12:23:31;101842.69;;;23.13;70.54
5883;BME280;2967;51.488;6.618;2022-07-05T12:28:33;101890.03;;;23.60;70.08
5883;BME280;2967;51.488;6.618;2022-07-05T12:33:39;101887.56;;;23.84;69.79
5883;BME280;2967;51.488;6.618;2022-07-05T12:38:42;101896.25;;;24.21;68.34
5883;BME280;2967;51.488;6.618;2022-07-05T12:43:52;101893.38;;;23.97;65.29
5883;BME280;2967;51.488;6.618;2022-07-05T12:49:00;101888.31;;;23.77;65.49
5883;BME280;2967;51.488;6.618;2022-07-05T12:54:06;101890.53;;;23.81;68.17
5883;BME280;2967;51.488;6.618;2022-07-05T12:59:27;101896.38;;;23.51;65.01
5883;BME280;2967;51.488;6.618;2022-07-05T13:04:31;101875.00;;;23.40;70.32
5883;BME280;2967;51.488;6.618;2022-07-05T13:09:35;101891.59;;;23.45;67.67
5883;BME280;2967;51.488;6.618;2022-07-05T13:14:39;101901.75;;;23.86;69.14
5883;BME280;2967;51.488;6.618;2022-07-05T13:19:45;101888.31;;;23.77;66.92
5883;BME280;2967;51.488;6.618;2022-07-05T13:24:48;101898.41;;;23.75;71.24
5883;BME280;2967;51.488;6.618;2022-07-05T13:29:51;101864.53;;;23.80;67.36
5883;BME280;2967;51.488;6.618;2022-07-05T13:34:55;101886.75;;;24.17;69.54
5883;BME280;2967;51.488;6.618;2022-07-05T13:39:58;101890.63;;;23.72;65.04
5883;BME280;2967;51.488;6.618;2022-07-05T13:45:01;101887.78;;;23.38;69.30
5883;BME280;2967;51.488;6.618;2022-07-05T13:50:05;101913.44;;;23.17;69.58
5883;BME280;2967;51.488;6.618;2022-07-05T13:55:25;101894.91;;;23.39;70.46
5883;BME280;2967;51.488;6.618;2022-07-05T14:00:28;101899.84;;;24.04;70.80
5883;BME280;2967;51.488;6.618;2022-07-05T14:05:32;101910.94;;;24.77;70.43
5883;BME280;2967;51.488;6.618;2022-07-05T14:10:39;101900.66;;;24.97;65.85
5883;BME280;2967;51.488;6.618;2022-07-05T14:15:42;101904.97;;;25.15;63.41
5883;BME280;2967;51.488;6.618;2022-07-05T14:20:47;101886.69;;;25.17;63.31
5883;BME280;2967;51.488;6.618;2022-07-05T14:25:50;101888.63;;;25.41;64.79
5883;BME280;2967;51.488;6.618;2022-07-05T14:30:53;101878.59;;;25.65;62.79
5883;BME280;2967;51.488;6.618;2022-07-05T14:35:57;101897.41;;;25.35;61.39
5883;BME280;2967;51.488;6.618;2022-07-05T14:40:59;101884.47;;;25.13;64.54
5883;BME280;2967;51.488;6.618;2022-07-05T14:46:02;101902.47;;;24.47;63.21
5883;BME280;2967;51.488;6.618;2022-07-05T14:51:08;101867.63;;;24.44;65.42
5883;BME280;2967;51.488;6.618;2022-07-05T14:56:12;101888.50;;;24.26;64.68
5883;BME280;2967;51.488;6.618;2022-07-05T15:01:15;101911.16;;;24.00;66.12
5883;BME280;2967;51.488;6.618;2022-07-05T15:06:21;101884.75;;;23.76;66.51
5883;BME280;2967;51.488;6.618;2022-07-05T15:11:23;101799.16;;;23.16;68.35
5883;BME280;2967;51.488;6.618;2022-07-05T15:16:26;101906.84;;;23.89;68.68
5883;BME280;2967;51.488;6.618;2022-07-05T15:21:30;101816.53;;;23.31;67.73
5883;BME280;2967;51.488;6.618;2022-07-05T15:26:35;101850.44;;;23.51;68.60
5883;BME280;2967;51.488;6.618;2022-07-05T15:31:37;101899.38;;;23.66;68.97
5883;BME280;2967;51.488;6.618;2022-07-05T15:41:44;101869.47;;;23.67;70.66
5883;BME280;2967;51.488;6.618;2022-07-05T15:46:50;101878.16;;;23.53;69.44
5883;BME280;2967;51.488;6.618;2022-07-05T15:52:06;101900.84;;;23.60;70.19
5883;BME280;2967;51.488;6.618;2022-07-05T15:57:09;101901.59;;;23.53;70.43
5883;BME280;2967;51.488;6.618;2022-07-05T16:02:12;101900.00;;;23.42;70.01
5883;BME280;2967;51.488;6.618;2022-07-05T16:07:16;101898.06;;;23.17;70.94
5883;BME280;2967;51.488;6.618;2022-07-05T16:12:19;101889.06;;;22.99;70.79
5883;BME280;2967;51.488;6.618;2022-07-05T16:17:22;101905.38;;;22.80;71.52
5883;BME280;2967;51.488;6.618;2022-07-05T16:22:26;101877.09;;;22.57;72.31
5883;BME280;2967;51.488;6.618;2022-07-05T16:27:30;101923.66;;;22.86;73.37
5883;BME280;2967;51.488;6.618;2022-07-05T16:32:33;101912.81;;;22.96;71.48
5883;BME280;2967;51.488;6.618;2022-07-05T16:37:37;101925.78;;;22.92;71.72
5883;BME280;2967;51.488;6.618;2022-07-05T16:42:40;101885.50;;;22.54;69.94
5883;BME280;2967;51.488;6.618;2022-07-05T16:47:43;101919.13;;;22.60;70.62
5883;BME280;2967;51.488;6.618;2022-07-05T16:52:47;101923.72;;;22.31;71.74
5883;BME280;2967;51.488;6.618;2022-07-05T16:57:50;101814.41;;;21.73;70.51
5883;BME280;2967;51.488;6.618;2022-07-05T17:02:53;101906.94;;;22.00;69.47
5883;BME280;2967;51.488;6.618;2022-07-05T17:08:02;101932.25;;;22.26;70.44
5883;BME280;2967;51.488;6.618;2022-07-05T17:13:05;101945.59;;;22.28;70.39
5883;BME280;2967;51.488;6.618;2022-07-05T17:18:10;101907.09;;;21.99;68.15
5883;BME280;2967;51.488;6.618;2022-07-05T17:23:14;101895.88;;;22.03;68.69
5883;BME280;2967;51.488;6.618;2022-07-05T17:28:18;101956.34;;;22.37;69.63
5883;BME280;2967;51.488;6.618;2022-07-05T17:33:23;101947.34;;;22.10;68.13
5883;BME280;2967;51.488;6.618;2022-07-05T17:38:27;101921.00;;;21.94;67.36
5883;BME280;2967;51.488;6.618;2022-07-05T17:43:30;101965.91;;;22.13;68.34
5883;BME280;2967;51.488;6.618;2022-07-05T17:48:33;101963.66;;;22.08;68.50
5883;BME280;2967;51.488;6.618;2022-07-05T17:53:37;101907.69;;;21.74;68.45
5883;BME280;2967;51.488;6.618;2022-07-05T17:58:41;101911.38;;;21.63;67.81
5883;BME280;2967;51.488;6.618;2022-07-05T18:03:45;101894.22;;;21.46;67.80
5883;BME280;2967;51.488;6.618;2022-07-05T18:08:51;101979.00;;;21.70;67.89
5883;BME280;2967;51.488;6.618;2022-07-05T18:14:02;101975.47;;;21.70;68.59
5883;BME280;2967;51.488;6.618;2022-07-05T18:19:07;101979.00;;;21.70;68.13
5883;BME280;2967;51.488;6.618;2022-07-05T18:24:13;101897.75;;;21.18;68.08
5883;BME280;2967;51.488;6.618;2022-07-05T18:29:18;101991.84;;;21.38;69.21
5883;BME280;2967;51.488;6.618;2022-07-05T18:34:20;101986.47;;;21.38;69.01
5883;BME280;2967;51.488;6.618;2022-07-05T18:39:30;101992.69;;;21.39;68.77
5883;BME280;2967;51.488;6.618;2022-07-05T18:44:49;101983.03;;;21.27;69.03
5883;BME280;2967;51.488;6.618;2022-07-05T18:50:01;101968.81;;;21.06;69.49
5883;BME280;2967;51.488;6.618;2022-07-05T18:55:08;101998.78;;;21.22;68.33
5883;BME280;2967;51.488;6.618;2022-07-05T19:00:15;101917.94;;;20.54;69.08
5883;BME280;2967;51.488;6.618;2022-07-05T19:05:27;101829.63;;;19.89;70.20
5883;BME280;2967;51.488;6.618;2022-07-05T19:10:31;102024.22;;;21.08;69.09
5883;BME280;2967;51.488;6.618;2022-07-05T19:16:07;102029.00;;;20.75;69.55
5883;BME280;2967;51.488;6.618;2022-07-05T19:21:10;101957.56;;;20.52;69.75
5883;BME280;2967;51.488;6.618;2022-07-05T19:26:17;102019.13;;;20.85;71.43
5883;BME280;2967;51.488;6.618;2022-07-05T19:31:22;101952.53;;;20.38;70.55
5883;BME280;2967;51.488;6.618;2022-07-05T19:36:28;102019.75;;;20.88;71.19
5883;BME280;2967;51.488;6.618;2022-07-05T19:41:32;101984.63;;;20.60;72.60
5883;BME280;2967;51.488;6.618;2022-07-05T19:46:36;102032.09;;;20.70;74.93
5883;BME280;2967;51.488;6.618;2022-07-05T19:51:39;102052.09;;;20.16;77.17
5883;BME280;2967;51.488;6.618;2022-07-05T19:56:43;102054.53;;;20.19;78.04
5883;BME280;2967;51.488;6.618;2022-07-05T20:01:50;102072.16;;;20.12;79.40
5883;BME280;2967;51.488;6.618;2022-07-05T20:06:55;101942.06;;;19.42;79.22
5883;BME280;2967;51.488;6.618;2022-07-05T20:11:59;102043.53;;;19.90;79.75
5883;BME280;2967;51.488;6.618;2022-07-05T20:17:04;102036.34;;;19.91;80.38
5883;BME280;2967;51.488;6.618;2022-07-05T20:22:11;102094.91;;;19.97;81.54
5883;BME280;2967;51.488;6.618;2022-07-05T20:27:15;102096.59;;;19.98;81.49
5883;BME280;2967;51.488;6.618;2022-07-05T20:32:18;102105.19;;;19.92;82.55
5883;BME280;2967;51.488;6.618;2022-07-05T20:37:21;101979.44;;;19.12;81.48
5883;BME280;2967;51.488;6.618;2022-07-05T20:42:26;102118.84;;;19.89;82.09
5883;BME280;2967;51.488;6.618;2022-07-05T20:47:28;102116.91;;;19.91;82.40
5883;BME280;2967;51.488;6.618;2022-07-05T20:52:31;102109.41;;;19.63;83.06
5883;BME280;2967;51.488;6.618;2022-07-05T20:57:36;102125.88;;;19.69;83.08
5883;BME280;2967;51.488;6.618;2022-07-05T21:02:53;102137.75;;;19.34;84.44
5883;BME280;2967;51.488;6.618;2022-07-05T21:07:56;102132.34;;;19.12;85.51
5883;BME280;2967;51.488;6.618;2022-07-05T21:13:00;102131.72;;;19.08;86.17
5883;BME280;2967;51.488;6.618;2022-07-05T21:18:06;102156.56;;;18.88;86.94
5883;BME280;2967;51.488;6.618;2022-07-05T21:23:09;102158.75;;;18.83;87.55
5883;BME280;2967;51.488;6.618;2022-07-05T21:28:17;102169.53;;;18.94;87.27
5883;BME280;2967;51.488;6.618;2022-07-05T21:33:21;102122.41;;;18.11;89.73
5883;BME280;2967;51.488;6.618;2022-07-05T21:38:28;102173.69;;;18.64;87.93
5883;BME280;2967;51.488;6.618;2022-07-05T21:43:32;102182.94;;;18.94;87.25
5883;BME280;2967;51.488;6.618;2022-07-05T21:48:35;102179.72;;;18.78;86.04
5883;BME280;2967;51.488;6.618;2022-07-05T21:53:45;102179.78;;;18.66;86.98
5883;BME280;2967;51.488;6.618;2022-07-05T21:58:49;102184.78;;;19.16;84.45
5883;BME280;2967;51.488;6.618;2022-07-05T22:04:15;102095.69;;;18.56;84.11
5883;BME280;2967;51.488;6.618;2022-07-05T22:09:29;102197.47;;;19.14;84.47
5883;BME280;2967;51.488;6.618;2022-07-05T22:14:34;102173.00;;;18.26;86.40
5883;BME280;2967;51.488;6.618;2022-07-05T22:19:37;102122.75;;;18.06;85.63
5883;BME280;2967;51.488;6.618;2022-07-05T22:24:40;102197.13;;;18.73;84.82
5883;BME280;2967;51.488;6.618;2022-07-05T22:29:44;102203.50;;;18.49;85.93
5883;BME280;2967;51.488;6.618;2022-07-05T22:34:47;102206.00;;;17.67;89.60
5883;BME280;2967;51.488;6.618;2022-07-05T22:39:52;102151.25;;;18.07;86.81
5883;BME280;2967;51.488;6.618;2022-07-05T22:44:56;102094.22;;;17.71;86.56
5883;BME280;2967;51.488;6.618;2022-07-05T22:49:59;102203.81;;;18.21;87.07
5883;BME280;2967;51.488;6.618;2022-07-05T22:55:02;101926.94;;;16.21;88.13
5883;BME280;2967;51.488;6.618;2022-07-05T23:00:07;102206.63;;;17.83;88.37
5883;BME280;2967;51.488;6.618;2022-07-05T23:05:18;102102.72;;;17.65;86.94
5883;BME280;2967;51.488;6.618;2022-07-05T23:10:21;102213.69;;;17.84;88.68
5883;BME280;2967;51.488;6.618;2022-07-05T23:15:25;102233.78;;;17.90;87.55
5883;BME280;2967;51.488;6.618;2022-07-05T23:20:28;102206.88;;;17.55;88.81
5883;BME280;2967;51.488;6.618;2022-07-05T23:25:31;102187.94;;;17.94;86.50
5883;BME280;2967;51.488;6.618;2022-07-05T23:30:35;102120.97;;;17.71;85.93
5883;BME280;2967;51.488;6.618;2022-07-05T23:35:37;102127.34;;;17.57;86.37
5883;BME280;2967;51.488;6.618;2022-07-05T23:40:40;102220.63;;;17.99;86.11
5883;BME280;2967;51.488;6.618;2022-07-05T23:45:44;102217.03;;;17.25;89.52
5883;BME280;2967;51.488;6.618;2022-07-05T23:50:47;102223.56;;;17.59;88.32
5883;BME280;2967;51.488;6.618;2022-07-05T23:55:50;102223.44;;;17.73;87.61
